Hlavní strana
METAR-TAF:

METAR-TAF

Letiště :

Gastonia Municipal Airport

Gastonia, Severní Karolína, Spojené státy americké

zeměpisná šířka: 35-11-48N, zeměpisná délka: 081-09-21W, výška: 243 m

Aktuální stav počasí

Zpráva byla vytvořena před 20 minutami, v 01:54 UTC
Bezvětří
Teplota 5°C
Vlhkost vzduchu 87%
Tlak 1019 hPa
Viditelnost: 4.8 km
Oblačno až skoro zataženo ve výšce 1400 ft
Zataženo ve výšce 3000 ft
slabý déšť, kouřmo

METAR: KAKH 190154Z AUTO 00000KT 3SM -RA BR BKN014 OVC030 05/03 A3010 RMK AO2 RAE28B44 SLP199 P0001 T00500028

Čas: 21:14 (02:14 UTC)


TAF: chybějící

Stav a předpovědi počasí z více než 4 000 letišť (zprávy METAR a TAF).

Červené a žluté tečky na mapě představují dostupné meteorologické stanice.

Když kurzor umístíte na tečku, zobrazí se název stanice.

Pak kliknutím zobrazíte stav a předpověď počasí.

Chcete-li změnit mapu, kliknutím na zelené tlačítko se znaménkem +mapu přiblížíte, kliknutím na zelené tlačítko se znaménkem – mapu oddálíte a kliknutím na zelené šipky přejdete na sousední mapy.


METAR-TAF: